• Join FlightAware (Why Join?)
  • Login
  • US Flag 
09:42AM EDT


 

Airport Tracker/Info


-or-


 

Live Flight TrackerFlight Track Log ✈ THY638 ✈ 18-Jul-2013 ✈ HLLT / TIP - LTBA / IST

Flight Track Log - Related Links

Times and Time Zones

All times are in EDT time to prevent confusion due to time zone crossing. See the THY638 flight status page for this flight to view local times or setup timezone preferences in your user account.

Time Position Orientation Groundspeed Altitude Reporting Facility
EDT Latitude Longitude Course Direction KTS MPH feet Rate Location/Type
01:46PM 32.7330 13.2700 55° Northeast 263 303 4,500  Level FlightAware
01:46PM 32.7540 13.3070 56° Northeast 282 325 5,800 3,240 Climbing FlightAware
01:47PM 32.7740 13.3390 53° Northeast 276 318 7,500 3,720 Climbing FlightAware
01:47PM 32.7920 13.3690 54° Northeast 274 315 8,900 3,180 Climbing FlightAware
01:48PM 32.8070 13.3930 53° Northeast 279 321 9,900 2,100 Climbing FlightAware
01:48PM 32.8310 13.4320 54° Northeast 308 354 10,700 1,500 Climbing FlightAware
01:49PM 32.8600 13.4790 54° Northeast 342 394 11,500 2,100 Climbing FlightAware
01:49PM 32.8880 13.5120 45° Northeast 334 384 12,700 2,460 Climbing FlightAware
01:50PM 32.9230 13.5230 15° North 329 379 13,700 2,460 Climbing FlightAware
01:50PM 32.9740 13.5140 352° North 336 387 15,100 1,200 Climbing FlightAware
01:51PM 33.0320 13.5010 349° North 337 388 15,200 60 Climbing FlightAware
01:51PM 33.0800 13.4910 350° North 337 388 15,200  Level FlightAware
01:52PM 33.1430 13.4780 350° North 337 388 15,200  Level FlightAware
01:53PM 33.1900 13.4680 350° North 337 388 15,200 5,040 Level FlightAware
01:53PM 33.3220 13.4460 352° North 392 451 21,800 4,740 Climbing FlightAware
01:54PM 33.3860 13.4320 350° North 393 452 21,900 1,560 Climbing FlightAware
01:55PM 33.5110 13.4090 351° North 413 475 24,500 2,220 Climbing FlightAware
01:56PM 33.5850 13.3940 350° North 417 480 25,600 1,500 Climbing FlightAware
01:57PM 33.6760 13.3760 351° North 423 487 26,700 1,380 Climbing FlightAware
01:57PM 33.7490 13.3620 351° North 428 493 27,600 1,440 Climbing FlightAware
01:58PM 33.8270 13.3470 351° North 431 496 28,600 1,260 Climbing FlightAware
01:59PM 33.9160 13.3290 350° North 439 505 29,400 960 Climbing FlightAware
01:59PM 34.0020 13.3120 351° North 450 518 30,000 840 Climbing FlightAware
02:00PM 34.0750 13.2970 350° North 458 527 30,500 1,140 Climbing FlightAware
02:01PM 34.1560 13.2810 351° North 456 525 31,400 1,440 Climbing FlightAware
02:02PM 34.2730 13.2620 352° North 453 521 32,800 1,620 Climbing FlightAware
02:02PM 34.3320 13.2750 10° North 456 525 33,800 1,200 Climbing FlightAware
02:03PM 34.4080 13.3310 31° Northeast 478 550 34,200 540 Climbing FlightAware
02:03PM 34.4780 13.4130 44° Northeast 486 559 34,600 720 Climbing FlightAware
02:04PM 34.5450 13.4900 43° Northeast 485 558 35,300 900 Climbing FlightAware
02:05PM 34.6100 13.5660 44° Northeast 486 559 35,800 720 Climbing FlightAware
02:06PM 34.6820 13.6500 44° Northeast 488 562 36,400 660 Climbing FlightAware
02:06PM 34.7570 13.7370 44° Northeast 494 568 36,800 420 Climbing FlightAware
02:07PM 34.8220 13.8130 44° Northeast 490 564 37,000 120 Climbing FlightAware
02:08PM 34.8850 13.8870 44° Northeast 488 562 37,000  Level FlightAware
02:08PM 34.9600 13.9760 44° Northeast 491 565 37,000  Level FlightAware
02:09PM 35.0250 14.0530 44° Northeast 492 566 37,000  Level FlightAware
02:10PM 35.1160 14.1600 44° Northeast 495 570 37,000  Level FlightAware
02:11PM 35.1890 14.2460 44° Northeast 494 568 37,000  Level FlightAware
02:12PM 35.2970 14.3750 44° Northeast 495 570 37,000  Level FlightAware
02:13PM 35.3870 14.4820 44° Northeast 497 572 37,000  Level FlightAware
02:13PM 35.4700 14.5700 41° Northeast 494 568 37,000  Level FlightAware
02:14PM 35.5450 14.6440 39° Northeast 496 571 37,000  Level FlightAware
02:15PM 35.6210 14.7200 39° Northeast 496 571 37,000  Level FlightAware
02:16PM 35.6920 14.7920 39° Northeast 497 572 37,000  Level FlightAware
02:16PM 35.7540 14.8540 39° Northeast 497 572 37,000  Level FlightAware
02:17PM 35.8350 14.9360 39° Northeast 496 571 37,000  Level FlightAware
02:18PM 35.9070 15.0090 39° Northeast 495 570 37,000  Level FlightAware
02:18PM 35.9710 15.0730 39° Northeast 495 570 37,000  Level FlightAware
02:19PM 36.0480 15.1520 40° Northeast 494 568 37,000  Level FlightAware
02:21PM 36.1373 15.3528 61° Northeast  Level Estimated
02:22PM 36.1925 15.4772 61° Northeast  Level Estimated
02:23PM 36.2474 15.6018 61° Northeast  Level Estimated
02:24PM 36.3023 15.7265 61° Northeast  Level Estimated
02:24PM 36.5290 15.6380 61° Northeast 493 567 37,000  Level FlightAware
02:27PM 36.6544 15.9401 63° Northeast  Level Estimated
02:27PM 36.8440 16.1390 63° Northeast 499 574 37,000  Level FlightAware
02:28PM 36.7068 16.0671 63° Northeast  Level Estimated
02:28PM 36.9160 16.2510 51° Northeast 500 575 37,000  Level FlightAware
02:29PM 36.9690 16.3320 51° Northeast 501 577 37,000  Level FlightAware
02:29PM 37.0450 16.4500 51° Northeast 502 578 37,000  Level FlightAware
02:30PM 37.0950 16.5270 51° Northeast 502 578 37,000  Level FlightAware
02:31PM 37.1590 16.6270 51° Northeast 502 578 37,000  Level FlightAware
02:31PM 37.2160 16.7160 51° Northeast 503 579 37,000  Level FlightAware
02:32PM 37.2700 16.8000 51° Northeast 502 578 37,000  Level FlightAware
02:33PM 37.3330 16.9000 52° Northeast 503 579 37,000  Level FlightAware
02:33PM 37.3880 16.9850 51° Northeast 501 577 37,000  Level FlightAware
02:34PM 37.4340 17.0570 51° Northeast 502 578 37,000  Level FlightAware
02:35PM 37.5020 17.1650 52° Northeast 503 579 37,000  Level FlightAware
02:35PM 37.5630 17.2620 52° Northeast 503 579 37,000  Level FlightAware
02:36PM 37.6120 17.3400 52° Northeast 503 579 37,000  Level FlightAware
02:37PM 37.6750 17.4400 51° Northeast 503 579 37,000  Level FlightAware
02:37PM 37.7350 17.5350 51° Northeast 503 579 37,000  Level FlightAware
02:38PM 37.7900 17.6240 52° Northeast 503 579 37,000  Level FlightAware
02:39PM 37.8540 17.7270 52° Northeast 502 578 37,000  Level FlightAware
02:39PM 37.9140 17.8230 52° Northeast 502 578 37,000  Level FlightAware
02:40PM 37.9490 17.8810 53° Northeast 501 577 37,000  Level FlightAware
02:41PM 38.0360 18.0090 49° Northeast 500 575 37,000  Level FlightAware
02:42PM 38.1000 18.0990 48° Northeast 500 575 37,000  Level FlightAware
02:42PM 38.1600 18.1840 48° Northeast 499 574 37,000  Level FlightAware
02:43PM 38.2380 18.2950 48° Northeast 498 573 37,000  Level FlightAware
02:44PM 38.2990 18.3830 49° Northeast 498 573 37,000  Level FlightAware
02:44PM 38.3600 18.4710 49° Northeast 499 574 37,000  Level FlightAware
02:45PM 38.4140 18.5480 48° Northeast 499 574 37,000  Level FlightAware
02:46PM 38.5140 18.6940 49° Northeast 500 575 37,000  Level FlightAware
02:47PM 38.5870 18.7990 48° Northeast 500 575 37,000  Level FlightAware
02:48PM 38.6490 18.8890 49° Northeast 501 577 37,000  Level FlightAware
02:48PM 38.6970 18.9590 49° Northeast 499 574 37,000  Level FlightAware
02:49PM 38.7710 19.0680 49° Northeast 500 575 37,000  Level FlightAware
02:49PM 38.8080 19.1220 49° Northeast 500 575 37,000  Level FlightAware
02:50PM 38.8750 19.2200 49° Northeast 500 575 37,000  Level FlightAware
02:51PM 38.9370 19.3120 49° Northeast 500 575 37,000  Level FlightAware
02:51PM 38.9910 19.3920 49° Northeast 499 574 37,000  Level FlightAware
02:52PM 39.0640 19.5010 49° Northeast 499 574 37,000  Level FlightAware
02:53PM 39.1250 19.5920 49° Northeast 499 574 37,000  Level FlightAware
02:53PM 39.1860 19.6820 49° Northeast 497 572 37,000  Level FlightAware
02:54PM 39.2470 19.7740 49° Northeast 496 571 37,000  Level FlightAware
02:55PM 39.3210 19.8860 49° Northeast 495 570 37,000  Level FlightAware
02:56PM 39.3740 19.9670 50° Northeast 493 567 37,000  Level FlightAware
02:56PM 39.4310 20.0620 52° Northeast 494 568 37,000  Level FlightAware
02:57PM 39.4840 20.1880 61° Northeast 494 568 37,000  Level FlightAware
02:58PM 39.5210 20.2970 66° East 493 567 37,000  Level FlightAware
02:58PM 39.5580 20.4040 66° East 492 566 37,000  Level FlightAware
02:59PM 39.5990 20.5210 66° East 493 567 37,000  Level FlightAware
03:00PM 39.6550 20.6880 66° East 495 570 37,000  Level FlightAware
03:01PM 39.6940 20.8030 66° East 495 570 37,000  Level FlightAware
03:01PM 39.7320 20.9100 65° Northeast 496 571 37,000  Level FlightAware
03:02PM 39.7750 21.0280 65° Northeast 497 572 37,000  Level FlightAware
03:03PM 39.8170 21.1420 64° Northeast 498 573 37,000  Level FlightAware
03:04PM 39.8540 21.2460 65° Northeast 499 574 37,000  Level FlightAware
03:04PM 39.8990 21.3720 65° Northeast 498 573 37,000  Level FlightAware
03:05PM 39.9330 21.4690 65° Northeast 498 573 37,000  Level FlightAware
03:06PM 39.9800 21.6000 65° Northeast 497 572 37,000  Level FlightAware
03:06PM 40.0200 21.7140 65° Northeast 496 571 37,000  Level FlightAware
03:07PM 40.0560 21.8160 65° Northeast 496 571 37,000  Level FlightAware
03:08PM 40.1000 21.9410 65° Northeast 495 570 37,000  Level FlightAware
03:08PM 40.1350 22.0390 65° Northeast 496 571 37,000  Level FlightAware
03:09PM 40.1800 22.1710 66° East 497 572 37,000  Level FlightAware
03:10PM 40.2210 22.2930 66° East 497 572 37,000  Level FlightAware
03:11PM 40.3020 22.5320 66° East 498 573 37,000  Level FlightAware
03:12PM 40.3380 22.6380 66° East 499 574 37,000  Level FlightAware
03:13PM 40.3800 22.7610 66° East 499 574 37,000  Level FlightAware
03:14PM 40.4210 22.8850 66° East 499 574 37,000  Level FlightAware
03:14PM 40.4560 23.0060 69° East 500 575 37,000  Level FlightAware
03:15PM 40.4840 23.1720 77° East 498 573 37,000  Level FlightAware
03:16PM 40.5000 23.2850 79° East 497 572 37,000  Level FlightAware
03:16PM 40.5160 23.3940 79° East 498 573 37,000  Level FlightAware
03:17PM 40.5330 23.5120 79° East 499 574 37,000  Level FlightAware
03:18PM 40.5510 23.6430 80° East 500 575 37,000  Level FlightAware
03:18PM 40.5690 23.7700 79° East 500 575 37,000  Level FlightAware
03:19PM 40.5880 23.8980 79° East 499 574 37,000  Level FlightAware
03:20PM 40.6040 24.0190 80° East 498 573 37,000  Level FlightAware
03:21PM 40.6220 24.1480 80° East 498 573 37,000  Level FlightAware
03:21PM 40.6380 24.2690 80° East 499 574 37,000  Level FlightAware
03:22PM 40.6580 24.4140 80° East 500 575 37,000  Level FlightAware
03:23PM 40.6770 24.5590 80° East 503 579 37,000  Level FlightAware
03:24PM 40.6930 24.6800 80° East 503 579 37,000  Level FlightAware
03:24PM 40.7090 24.7980 80° East 502 578 37,000  Level FlightAware
03:25PM 40.7230 24.9110 81° East 501 577 37,000  Level FlightAware
03:27PM 40.7760 25.3210 80° East 501 577 37,000  Level FlightAware
03:28PM 40.7920 25.4480 81° East 502 578 37,000  Level FlightAware
03:29PM 40.8070 25.5690 81° East 502 578 37,000  Level FlightAware
03:29PM 40.8240 25.7110 81° East 503 579 37,000  Level FlightAware
03:30PM 40.8370 25.8180 81° East 502 578 37,000  Level FlightAware
03:31PM 40.8510 25.9330 81° East 502 578 37,000  Level FlightAware
03:31PM 40.8620 26.0320 82° East 502 578 37,000  Level FlightAware
03:32PM 40.8740 26.1570 83° East 501 577 37,000  Level FlightAware
03:32PM 40.8860 26.2920 83° East 503 579 37,000 -180 Level FlightAware
03:33PM 40.8930 26.4130 86° East 506 582 36,800 -1,200 Descending FlightAware
03:34PM 40.9010 26.5540 86° East 500 575 35,300 -1,680 Descending FlightAware
03:35PM 40.9080 26.6690 85° East 480 552 34,500 -2,580 Descending FlightAware
03:35PM 40.9160 26.8010 85° East 495 570 31,700 -2,820 Descending FlightAware
03:36PM 40.9360 26.9200 77° East 469 540 30,600 -1,380 Descending FlightAware
03:37PM 40.9560 27.0270 76° East 444 511 29,900 -1,080 Descending FlightAware
03:38PM 40.9670 27.1750 84° East 441 507 28,900 -1,260 Descending FlightAware
03:38PM 40.9590 27.2940 95° East 434 499 27,800 -1,440 Descending FlightAware
03:39PM 40.9540 27.3870 94° East 423 487 27,000 -1,440 Descending FlightAware
03:40PM 40.9510 27.5320 92° East 385 443 25,600 -1,440 Descending FlightAware
03:41PM 40.9510 27.6220 90° East 380 437 24,600 -1,380 Descending FlightAware
03:41PM 40.9510 27.7160 90° East 373 429 23,800 -1,440 Descending FlightAware
03:42PM 40.9510 27.8150 90° East 367 422 22,600 -1,680 Descending FlightAware
03:43PM 40.9690 27.8960 74° East 343 395 21,500 -1,620 Descending FlightAware
03:43PM 41.0050 27.9700 57° Northeast 340 391 20,500 -1,020 Descending FlightAware
03:44PM 41.0460 28.0580 58° Northeast 336 387 20,000 -180 Descending FlightAware
03:46PM 41.1400 28.2580 58° Northeast 336 387 20,000 -1,200 Level FlightAware
03:47PM 41.1800 28.3430 58° Northeast 321 369 16,800 -2,580 Descending FlightAware
03:48PM 41.2130 28.4470 67° East 331 381 16,000 -840 Descending FlightAware
03:48PM 41.1950 28.4940 117° Southeast 338 389 15,700 -720 Descending FlightAware
03:49PM 41.1410 28.5390 148° Southeast 337 388 15,200 -840 Descending FlightAware
03:50PM 41.0840 28.5850 149° Southeast 322 371 14,500 -900 Descending FlightAware
03:50PM 41.0420 28.6190 149° Southeast 304 350 14,100 -720 Descending FlightAware
03:51PM 41.0240 28.6250 166° South 294 338 13,900 -1,080 Descending FlightAware
03:51PM 40.9890 28.6070 201° Southwest 296 341 13,400 -1,260 Descending FlightAware
03:52PM 40.9340 28.4900 238° Southwest 288 331 11,900 -1,140 Descending FlightAware
03:53PM 40.9060 28.4310 238° Southwest 284 327 11,300 -1,020 Descending FlightAware
03:54PM 40.8750 28.3640 239° Southwest 285 328 10,500 -1,020 Descending FlightAware
03:55PM 40.8320 28.2740 238° Southwest 271 312 9,500 -1,020 Descending FlightAware
03:55PM 40.8180 28.2430 239° Southwest 271 312 9,100 -540 Descending FlightAware
03:56PM 40.8030 28.2120 237° Southwest 271 312 9,100 -780 Level FlightAware
03:56PM 40.7830 28.1680 239° Southwest 264 304 8,400 -780 Descending FlightAware
03:57PM 40.7580 28.1140 239° Southwest 266 306 8,200 -420 Descending FlightAware
03:57PM 40.7390 28.0740 238° Southwest 263 303 7,900 -360 Descending FlightAware
03:58PM 40.7080 28.0080 238° Southwest 265 305 7,800 -300 Descending FlightAware
03:59PM 40.6550 27.9630 213° Southwest 264 304 7,500 -420 Descending FlightAware
03:59PM 40.6250 27.9540 193° South 262 302 7,300 -540 Descending FlightAware
04:00PM 40.5940 27.9860 142° Southeast 243 280 7,000 -360 Descending FlightAware
04:00PM 40.6030 28.0360 77° East 232 267 6,900 -300 Descending FlightAware
04:01PM 40.6200 28.0730 59° Northeast 226 260 6,700 -840 Descending FlightAware
04:01PM 40.6380 28.1110 58° Northeast 224 258 6,100 -1,080 Descending FlightAware
04:02PM 40.6500 28.1370 59° Northeast 221 254 5,700 -780 Descending FlightAware
04:02PM 40.6580 28.1540 58° Northeast 224 258 5,600 -780 Descending FlightAware
04:03PM 40.6740 28.1870 57° Northeast 221 254 5,200 -660 Descending FlightAware
04:03PM 40.6780 28.1950 57° Northeast 222 255 5,200 -540 Level FlightAware
04:04PM 40.7210 28.2860 58° Northeast 220 253 4,500 -540 Descending FlightAware
04:05PM 40.7420 28.3300 58° Northeast 218 251 4,200 -420 Descending FlightAware
04:05PM 40.7530 28.3540 59° Northeast 218 251 4,100 -240 Descending FlightAware
04:06PM 40.7720 28.3940 58° Northeast 215 247 4,000 -240 Descending FlightAware
04:06PM 40.7780 28.4080 60° Northeast 215 247 3,900 -120 Descending FlightAware
04:07PM 40.8030 28.4610 58° Northeast 219 252 3,900  Level FlightAware
04:07PM 40.8060 28.4680 60° Northeast 218 251 3,900  Level FlightAware
04:07PM 40.8190 28.4950 58° Northeast 220 253 3,900  Level FlightAware
04:08PM 40.8490 28.5580 58° Northeast 220 253 3,900 -120 Level FlightAware
04:09PM 40.8620 28.5880 60° Northeast 204 235 3,800 -660 Descending FlightAware
04:09PM 40.8800 28.6260 58° Northeast 192 221 3,200 -1,140 Descending FlightAware
04:09PM 40.8900 28.6480 59° Northeast 189 217 2,800 -1,200 Descending FlightAware
04:12PM 40.9769 28.8211 56° Northeast  Level Estimated